sensor_id;sensor_type;location;lat;lon;timestamp;pressure;altitude;pressure_sealevel;temperature;humidity
62976;BME280;49071;0.000;0.000;2022-12-08T06:30:34;99953.47;;;16.04;38.27
62976;BME280;49071;0.000;0.000;2022-12-08T06:33:36;99962.84;;;16.08;38.57
62976;BME280;49071;0.000;0.000;2022-12-08T06:36:37;99967.84;;;16.13;38.54
62976;BME280;49071;0.000;0.000;2022-12-08T06:39:37;99973.22;;;16.10;38.54
62976;BME280;49071;0.000;0.000;2022-12-08T06:42:37;99970.03;;;16.04;38.61
62976;BME280;49071;0.000;0.000;2022-12-08T06:45:43;99976.34;;;16.00;38.48
62976;BME280;49071;0.000;0.000;2022-12-08T06:48:43;99985.88;;;16.01;38.51
62976;BME280;49071;0.000;0.000;2022-12-08T06:51:44;99984.22;;;15.99;38.74
62976;BME280;49071;0.000;0.000;2022-12-08T06:54:44;99987.41;;;16.05;38.68
62976;BME280;49071;0.000;0.000;2022-12-08T06:57:44;99976.72;;;16.10;38.52
62976;BME280;49071;0.000;0.000;2022-12-08T07:00:44;99980.41;;;16.23;38.20
62976;BME280;49071;0.000;0.000;2022-12-08T07:03:44;99977.94;;;16.38;37.96
62976;BME280;49071;0.000;0.000;2022-12-08T07:06:45;99981.63;;;16.51;37.94
62976;BME280;49071;0.000;0.000;2022-12-08T07:09:45;99982.69;;;16.64;37.61
62976;BME280;49071;0.000;0.000;2022-12-08T07:12:45;99976.50;;;16.83;37.51
62976;BME280;49071;0.000;0.000;2022-12-08T07:15:45;99976.97;;;17.07;37.38
62976;BME280;49071;0.000;0.000;2022-12-08T07:18:45;99986.53;;;17.23;37.18
62976;BME280;49071;0.000;0.000;2022-12-08T07:21:46;99987.81;;;17.32;37.33
62976;BME280;49071;0.000;0.000;2022-12-08T07:24:46;99987.47;;;17.38;37.11
62976;BME280;49071;0.000;0.000;2022-12-08T07:27:46;99983.91;;;17.55;37.29
62976;BME280;49071;0.000;0.000;2022-12-08T07:30:46;99977.63;;;17.74;36.88
62976;BME280;49071;0.000;0.000;2022-12-08T07:33:47;99979.41;;;17.89;36.70
62976;BME280;49071;0.000;0.000;2022-12-08T07:36:47;99989.47;;;17.97;36.14
62976;BME280;49071;0.000;0.000;2022-12-08T07:39:47;99984.44;;;18.08;35.85
62976;BME280;49071;0.000;0.000;2022-12-08T07:42:48;99995.88;;;18.07;35.94
62976;BME280;49071;0.000;0.000;2022-12-08T07:45:48;99990.81;;;18.04;36.32
62976;BME280;49071;0.000;0.000;2022-12-08T07:48:49;99987.69;;;17.97;36.19
62976;BME280;49071;0.000;0.000;2022-12-08T07:51:49;99983.38;;;17.96;36.48
62976;BME280;49071;0.000;0.000;2022-12-08T07:54:49;99990.19;;;17.99;36.07
62976;BME280;49071;0.000;0.000;2022-12-08T07:57:50;99986.31;;;18.06;36.01
62976;BME280;49071;0.000;0.000;2022-12-08T08:00:50;99990.09;;;18.16;36.08
62976;BME280;49071;0.000;0.000;2022-12-08T08:03:51;99981.66;;;18.25;35.67
62976;BME280;49071;0.000;0.000;2022-12-08T08:06:52;99981.91;;;18.36;35.67
62976;BME280;49071;0.000;0.000;2022-12-08T08:09:52;99986.56;;;18.46;35.35
62976;BME280;49071;0.000;0.000;2022-12-08T08:12:52;99981.72;;;18.54;35.45
62976;BME280;49071;0.000;0.000;2022-12-08T08:15:52;99986.69;;;18.58;35.63
62976;BME280;49071;0.000;0.000;2022-12-08T08:18:53;99992.25;;;18.68;35.18
62976;BME280;49071;0.000;0.000;2022-12-08T08:21:53;99994.09;;;18.66;35.38
62976;BME280;49071;0.000;0.000;2022-12-08T08:24:53;99995.34;;;18.60;35.52
62976;BME280;49071;0.000;0.000;2022-12-08T08:27:54;99991.28;;;18.55;35.34
62976;BME280;49071;0.000;0.000;2022-12-08T08:30:54;99987.44;;;18.46;35.42
62976;BME280;49071;0.000;0.000;2022-12-08T08:33:55;99988.81;;;18.37;35.74
62976;BME280;49071;0.000;0.000;2022-12-08T08:36:55;99996.50;;;18.26;36.08
62976;BME280;49071;0.000;0.000;2022-12-08T08:39:55;99997.03;;;18.17;36.13
62976;BME280;49071;0.000;0.000;2022-12-08T08:42:56;99997.66;;;18.06;36.23
62976;BME280;49071;0.000;0.000;2022-12-08T08:45:56;99995.44;;;17.99;36.49
62976;BME280;49071;0.000;0.000;2022-12-08T08:48:57;99991.25;;;17.96;36.21
62976;BME280;49071;0.000;0.000;2022-12-08T08:51:57;99991.31;;;17.94;36.24
62976;BME280;49071;0.000;0.000;2022-12-08T08:54:57;99988.63;;;17.96;36.63
62976;BME280;49071;0.000;0.000;2022-12-08T08:57:57;99990.97;;;18.01;36.17
62976;BME280;49071;0.000;0.000;2022-12-08T09:00:57;99981.06;;;18.06;36.26
62976;BME280;49071;0.000;0.000;2022-12-08T09:03:58;99974.41;;;18.14;36.21
62976;BME280;49071;0.000;0.000;2022-12-08T09:06:58;99992.94;;;18.27;35.94
62976;BME280;49071;0.000;0.000;2022-12-08T09:09:58;99993.78;;;18.42;35.81
62976;BME280;49071;0.000;0.000;2022-12-08T09:12:58;99986.22;;;18.52;35.55
62976;BME280;49071;0.000;0.000;2022-12-08T09:15:59;99992.53;;;18.63;35.56
62976;BME280;49071;0.000;0.000;2022-12-08T09:19:00;99982.13;;;18.76;35.25
62976;BME280;49071;0.000;0.000;2022-12-08T09:22:01;99989.47;;;18.85;35.20
62976;BME280;49071;0.000;0.000;2022-12-08T09:25:01;99983.66;;;18.95;35.00
62976;BME280;49071;0.000;0.000;2022-12-08T09:28:01;99982.44;;;19.00;35.05
62976;BME280;49071;0.000;0.000;2022-12-08T09:31:01;99986.44;;;19.06;35.17
62976;BME280;49071;0.000;0.000;2022-12-08T09:34:02;99977.72;;;19.05;35.02
62976;BME280;49071;0.000;0.000;2022-12-08T09:37:02;99979.13;;;19.11;35.11
62976;BME280;49071;0.000;0.000;2022-12-08T09:40:03;99969.94;;;19.04;35.26
62976;BME280;49071;0.000;0.000;2022-12-08T09:46:29;99955.41;;;18.84;35.54
62976;BME280;49071;0.000;0.000;2022-12-08T09:49:33;99958.69;;;18.73;35.61
62976;BME280;49071;0.000;0.000;2022-12-08T09:53:18;99950.22;;;18.68;35.57
62976;BME280;49071;0.000;0.000;2022-12-08T09:55:59;99948.53;;;18.67;35.63
62976;BME280;49071;0.000;0.000;2022-12-08T09:59:05;99944.84;;;18.55;35.65
62976;BME280;49071;0.000;0.000;2022-12-08T10:02:31;99944.31;;;18.50;35.76
62976;BME280;49071;0.000;0.000;2022-12-08T10:05:31;99947.38;;;18.42;35.62
62976;BME280;49071;0.000;0.000;2022-12-08T10:08:56;99938.94;;;18.37;36.01
62976;BME280;49071;0.000;0.000;2022-12-08T10:12:07;99942.59;;;18.35;35.74
62976;BME280;49071;0.000;0.000;2022-12-08T10:15:33;99933.09;;;18.32;36.15
62976;BME280;49071;0.000;0.000;2022-12-08T10:18:36;99938.56;;;18.29;36.12
62976;BME280;49071;0.000;0.000;2022-12-08T10:21:36;99936.78;;;18.30;36.03
62976;BME280;49071;0.000;0.000;2022-12-08T10:24:40;99933.88;;;18.34;36.01
62976;BME280;49071;0.000;0.000;2022-12-08T10:27:42;99932.00;;;18.36;35.80
62976;BME280;49071;0.000;0.000;2022-12-08T10:30:43;99928.16;;;18.42;35.97
62976;BME280;49071;0.000;0.000;2022-12-08T10:33:43;99925.75;;;18.53;35.73
62976;BME280;49071;0.000;0.000;2022-12-08T10:36:45;99925.06;;;18.64;35.57
62976;BME280;49071;0.000;0.000;2022-12-08T10:39:46;99918.69;;;18.68;35.58
62976;BME280;49071;0.000;0.000;2022-12-08T10:42:47;99917.56;;;18.86;35.41
62976;BME280;49071;0.000;0.000;2022-12-08T10:45:47;99918.78;;;18.95;35.22
62976;BME280;49071;0.000;0.000;2022-12-08T10:48:49;99915.28;;;19.09;35.13
62976;BME280;49071;0.000;0.000;2022-12-08T10:51:50;99903.63;;;19.13;34.77
62976;BME280;49071;0.000;0.000;2022-12-08T10:54:50;99912.38;;;19.14;34.92
62976;BME280;49071;0.000;0.000;2022-12-08T10:57:51;99904.50;;;19.14;34.98
62976;BME280;49071;0.000;0.000;2022-12-08T11:00:55;99897.53;;;19.13;34.99
62976;BME280;49071;0.000;0.000;2022-12-08T11:03:57;99893.31;;;19.10;35.27
62976;BME280;49071;0.000;0.000;2022-12-08T11:06:58;99902.25;;;19.07;35.13
62976;BME280;49071;0.000;0.000;2022-12-08T11:09:58;99896.63;;;18.99;35.23
62976;BME280;49071;0.000;0.000;2022-12-08T11:13:00;99894.28;;;18.95;35.32
62976;BME280;49071;0.000;0.000;2022-12-08T11:16:01;99883.72;;;18.82;35.21
62976;BME280;49071;0.000;0.000;2022-12-08T11:19:04;99881.38;;;18.77;35.48
62976;BME280;49071;0.000;0.000;2022-12-08T11:25:25;99880.59;;;18.61;35.69
62976;BME280;49071;0.000;0.000;2022-12-08T11:28:25;99873.22;;;18.53;35.64
62976;BME280;49071;0.000;0.000;2022-12-08T11:37:34;99869.81;;;18.51;35.91
62976;BME280;49071;0.000;0.000;2022-12-08T11:40:37;99875.00;;;18.53;35.66
62976;BME280;49071;0.000;0.000;2022-12-08T11:43:39;99873.22;;;18.53;35.87
62976;BME280;49071;0.000;0.000;2022-12-08T11:46:45;99867.56;;;18.59;35.94
62976;BME280;49071;0.000;0.000;2022-12-08T11:49:47;99866.72;;;18.59;35.65
62976;BME280;49071;0.000;0.000;2022-12-08T11:52:55;99853.50;;;18.60;35.51
62976;BME280;49071;0.000;0.000;2022-12-08T11:55:56;99862.75;;;18.66;35.50
62976;BME280;49071;0.000;0.000;2022-12-08T11:58:59;99859.03;;;18.70;35.78
62976;BME280;49071;0.000;0.000;2022-12-08T12:02:00;99859.59;;;18.75;35.67
62976;BME280;49071;0.000;0.000;2022-12-08T12:05:03;99863.53;;;18.82;35.46
62976;BME280;49071;0.000;0.000;2022-12-08T12:14:09;99860.53;;;18.88;35.68
62976;BME280;49071;0.000;0.000;2022-12-08T12:23:35;99863.91;;;18.76;35.52
62976;BME280;49071;0.000;0.000;2022-12-08T12:26:38;99866.06;;;18.70;35.95
62976;BME280;49071;0.000;0.000;2022-12-08T12:29:52;99865.81;;;18.60;36.16
62976;BME280;49071;0.000;0.000;2022-12-08T12:32:55;99861.88;;;18.53;35.99
62976;BME280;49071;0.000;0.000;2022-12-08T12:35:56;99855.28;;;18.46;35.98
62976;BME280;49071;0.000;0.000;2022-12-08T12:38:57;99852.13;;;18.40;36.08
62976;BME280;49071;0.000;0.000;2022-12-08T12:42:01;99852.94;;;18.41;36.28
62976;BME280;49071;0.000;0.000;2022-12-08T12:48:20;99856.88;;;18.48;35.91
62976;BME280;49071;0.000;0.000;2022-12-08T12:54:36;99850.03;;;18.60;36.16
62976;BME280;49071;0.000;0.000;2022-12-08T12:57:54;99846.28;;;18.64;35.82
62976;BME280;49071;0.000;0.000;2022-12-08T13:04:13;99846.47;;;18.75;35.85
62976;BME280;49071;0.000;0.000;2022-12-08T13:07:19;99848.81;;;18.80;35.50
62976;BME280;49071;0.000;0.000;2022-12-08T13:10:24;99840.53;;;18.86;35.84
62976;BME280;49071;0.000;0.000;2022-12-08T13:13:25;99848.88;;;18.93;35.60
62976;BME280;49071;0.000;0.000;2022-12-08T13:16:26;99847.63;;;18.98;35.53
62976;BME280;49071;0.000;0.000;2022-12-08T13:19:28;99845.00;;;18.98;35.55
62976;BME280;49071;0.000;0.000;2022-12-08T13:25:49;99841.28;;;18.88;35.62
62976;BME280;49071;0.000;0.000;2022-12-08T13:35:08;99844.50;;;18.64;35.81
62976;BME280;49071;0.000;0.000;2022-12-08T13:38:13;99838.88;;;18.56;35.98
62976;BME280;49071;0.000;0.000;2022-12-08T13:41:16;99844.50;;;18.50;36.19
62976;BME280;49071;0.000;0.000;2022-12-08T13:44:21;99847.88;;;18.38;36.04
62976;BME280;49071;0.000;0.000;2022-12-08T13:47:27;99844.13;;;18.28;36.35
62976;BME280;49071;0.000;0.000;2022-12-08T13:50:38;99842.47;;;18.27;36.30
62976;BME280;49071;0.000;0.000;2022-12-08T13:53:39;99842.28;;;18.30;36.30
62976;BME280;49071;0.000;0.000;2022-12-08T13:56:43;99841.22;;;18.32;36.45
62976;BME280;49071;0.000;0.000;2022-12-08T13:59:43;99848.72;;;18.38;36.28
62976;BME280;49071;0.000;0.000;2022-12-08T14:02:44;99848.34;;;18.45;36.13
62976;BME280;49071;0.000;0.000;2022-12-08T14:05:45;99841.88;;;18.50;36.32
62976;BME280;49071;0.000;0.000;2022-12-08T14:08:46;99848.53;;;18.56;35.88
62976;BME280;49071;0.000;0.000;2022-12-08T14:11:51;99849.94;;;18.61;35.77
62976;BME280;49071;0.000;0.000;2022-12-08T14:14:57;99845.13;;;18.68;35.91
62976;BME280;49071;0.000;0.000;2022-12-08T14:17:58;99844.78;;;18.74;35.91
62976;BME280;49071;0.000;0.000;2022-12-08T14:21:11;99845.06;;;18.84;35.79
62976;BME280;49071;0.000;0.000;2022-12-08T14:24:12;99856.56;;;18.96;35.62
62976;BME280;49071;0.000;0.000;2022-12-08T14:27:16;99856.94;;;19.04;35.63
62976;BME280;49071;0.000;0.000;2022-12-08T14:30:19;99856.63;;;19.08;35.29
62976;BME280;49071;0.000;0.000;2022-12-08T14:33:19;99859.25;;;19.08;35.59
62976;BME280;49071;0.000;0.000;2022-12-08T14:36:20;99862.19;;;19.04;35.38
62976;BME280;49071;0.000;0.000;2022-12-08T14:39:20;99865.09;;;18.99;35.64
62976;BME280;49071;0.000;0.000;2022-12-08T14:42:22;99865.59;;;18.92;35.63
62976;BME280;49071;0.000;0.000;2022-12-08T14:45:22;99864.28;;;18.84;35.86
62976;BME280;49071;0.000;0.000;2022-12-08T14:48:23;99864.78;;;18.77;35.68
62976;BME280;49071;0.000;0.000;2022-12-08T14:51:25;99866.16;;;18.68;35.75
62976;BME280;49071;0.000;0.000;2022-12-08T14:54:28;99866.72;;;18.59;36.29
62976;BME280;49071;0.000;0.000;2022-12-08T14:57:30;99868.16;;;18.50;36.22
62976;BME280;49071;0.000;0.000;2022-12-08T15:00:32;99864.22;;;18.43;36.43
62976;BME280;49071;0.000;0.000;2022-12-08T15:03:32;99873.41;;;18.36;36.19
62976;BME280;49071;0.000;0.000;2022-12-08T15:06:33;99870.84;;;18.34;36.65
62976;BME280;49071;0.000;0.000;2022-12-08T15:12:33;99868.06;;;18.37;36.58
62976;BME280;49071;0.000;0.000;2022-12-08T15:15:45;99873.78;;;18.44;36.75
62976;BME280;49071;0.000;0.000;2022-12-08T15:18:45;99871.44;;;18.54;36.56
62976;BME280;49071;0.000;0.000;2022-12-08T15:21:50;99870.94;;;18.61;36.36
62976;BME280;49071;0.000;0.000;2022-12-08T15:24:51;99879.22;;;18.70;36.51
62976;BME280;49071;0.000;0.000;2022-12-08T15:27:52;99877.03;;;18.76;36.48
62976;BME280;49071;0.000;0.000;2022-12-08T15:30:52;99875.44;;;18.88;36.45
62976;BME280;49071;0.000;0.000;2022-12-08T15:33:53;99887.06;;;18.98;36.39
62976;BME280;49071;0.000;0.000;2022-12-08T15:36:54;99883.84;;;19.07;36.32
62976;BME280;49071;0.000;0.000;2022-12-08T15:39:54;99889.38;;;19.17;36.53
62976;BME280;49071;0.000;0.000;2022-12-08T15:42:54;99891.88;;;19.19;36.52
62976;BME280;49071;0.000;0.000;2022-12-08T15:45:54;99891.88;;;19.19;36.29
62976;BME280;49071;0.000;0.000;2022-12-08T15:48:55;99899.88;;;19.17;36.23
62976;BME280;49071;0.000;0.000;2022-12-08T15:51:55;99894.06;;;19.12;36.30
62976;BME280;49071;0.000;0.000;2022-12-08T15:54:55;99890.03;;;19.06;36.35
62976;BME280;49071;0.000;0.000;2022-12-08T15:57:55;99888.66;;;19.01;36.45
62976;BME280;49071;0.000;0.000;2022-12-08T16:00:56;99888.94;;;18.96;36.49
62976;BME280;49071;0.000;0.000;2022-12-08T16:03:56;99894.59;;;18.90;37.06
62976;BME280;49071;0.000;0.000;2022-12-08T16:06:56;99897.50;;;18.85;37.21
62976;BME280;49071;0.000;0.000;2022-12-08T16:09:56;99892.81;;;18.76;36.85
62976;BME280;49071;0.000;0.000;2022-12-08T16:12:57;99893.09;;;18.72;37.03
62976;BME280;49071;0.000;0.000;2022-12-08T16:16:16;99900.50;;;18.65;37.43
62976;BME280;49071;0.000;0.000;2022-12-08T16:19:20;99893.94;;;18.58;37.18
62976;BME280;49071;0.000;0.000;2022-12-08T16:22:29;99891.97;;;18.47;37.59
62976;BME280;49071;0.000;0.000;2022-12-08T16:25:31;99892.53;;;18.38;37.40
62976;BME280;49071;0.000;0.000;2022-12-08T16:28:31;99895.97;;;18.24;37.47
62976;BME280;49071;0.000;0.000;2022-12-08T16:31:31;99893.53;;;18.21;37.68
62976;BME280;49071;0.000;0.000;2022-12-08T16:34:31;99888.47;;;18.18;37.81
62976;BME280;49071;0.000;0.000;2022-12-08T16:37:31;99905.25;;;18.15;37.88
62976;BME280;49071;0.000;0.000;2022-12-08T16:40:32;99895.59;;;18.16;37.89
62976;BME280;49071;0.000;0.000;2022-12-08T16:43:52;99902.34;;;18.20;38.22
62976;BME280;49071;0.000;0.000;2022-12-08T16:46:52;99903.00;;;18.24;38.02
62976;BME280;49071;0.000;0.000;2022-12-08T16:49:52;99906.31;;;18.27;37.81
62976;BME280;49071;0.000;0.000;2022-12-08T16:52:55;99907.78;;;18.31;37.84
62976;BME280;49071;0.000;0.000;2022-12-08T16:55:56;99909.13;;;18.38;38.27
62976;BME280;49071;0.000;0.000;2022-12-08T16:58:56;99915.69;;;18.46;38.15
62976;BME280;49071;0.000;0.000;2022-12-08T17:01:56;99911.94;;;18.50;37.83
62976;BME280;49071;0.000;0.000;2022-12-08T17:04:56;99912.97;;;18.61;37.70
62976;BME280;49071;0.000;0.000;2022-12-08T17:07:57;99914.13;;;18.72;37.66
62976;BME280;49071;0.000;0.000;2022-12-08T17:10:57;99905.56;;;18.82;37.31
62976;BME280;49071;0.000;0.000;2022-12-08T17:14:06;99908.28;;;18.95;37.38
62976;BME280;49071;0.000;0.000;2022-12-08T17:17:08;99907.31;;;18.96;37.30
62976;BME280;49071;0.000;0.000;2022-12-08T17:20:12;99916.06;;;18.97;37.32
62976;BME280;49071;0.000;0.000;2022-12-08T17:23:12;99922.25;;;18.96;37.39
62976;BME280;49071;0.000;0.000;2022-12-08T17:26:12;99922.38;;;18.94;36.94
62976;BME280;49071;0.000;0.000;2022-12-08T17:29:13;99930.50;;;18.90;37.33
62976;BME280;49071;0.000;0.000;2022-12-08T17:32:13;99918.63;;;18.84;37.68
62976;BME280;49071;0.000;0.000;2022-12-08T17:35:13;99924.16;;;18.79;37.34
62976;BME280;49071;0.000;0.000;2022-12-08T17:38:14;99920.97;;;18.74;37.41
62976;BME280;49071;0.000;0.000;2022-12-08T17:41:14;99931.81;;;18.68;37.59
62976;BME280;49071;0.000;0.000;2022-12-08T17:44:15;99938.28;;;18.62;37.75
62976;BME280;49071;0.000;0.000;2022-12-08T17:47:16;99941.31;;;18.56;37.64
62976;BME280;49071;0.000;0.000;2022-12-08T17:50:16;99943.47;;;18.50;37.85
62976;BME280;49071;0.000;0.000;2022-12-08T17:53:16;99943.66;;;18.47;38.14
62976;BME280;49071;0.000;0.000;2022-12-08T17:56:18;99939.13;;;18.49;38.00
62976;BME280;49071;0.000;0.000;2022-12-08T17:59:18;99942.34;;;18.54;38.10
62976;BME280;49071;0.000;0.000;2022-12-08T18:02:18;99942.03;;;18.58;37.92
62976;BME280;49071;0.000;0.000;2022-12-08T18:05:19;99935.41;;;18.67;37.73
62976;BME280;49071;0.000;0.000;2022-12-08T18:08:19;99936.56;;;18.77;37.40
62976;BME280;49071;0.000;0.000;2022-12-08T18:11:19;99938.69;;;18.85;37.70
62976;BME280;49071;0.000;0.000;2022-12-08T18:14:20;99940.75;;;18.94;37.37
62976;BME280;49071;0.000;0.000;2022-12-08T18:17:20;99935.59;;;19.07;37.25
62976;BME280;49071;0.000;0.000;2022-12-08T18:20:20;99939.22;;;19.19;37.16
62976;BME280;49071;0.000;0.000;2022-12-08T18:23:20;99940.94;;;19.32;37.18
62976;BME280;49071;0.000;0.000;2022-12-08T18:26:20;99932.94;;;19.48;36.78
62976;BME280;49071;0.000;0.000;2022-12-08T18:29:21;99945.19;;;19.62;36.65
62976;BME280;49071;0.000;0.000;2022-12-08T18:32:21;99940.72;;;19.64;36.40
62976;BME280;49071;0.000;0.000;2022-12-08T18:35:22;99949.53;;;19.63;36.91
62976;BME280;49071;0.000;0.000;2022-12-08T18:38:22;99946.13;;;19.61;36.59
62976;BME280;49071;0.000;0.000;2022-12-08T18:41:23;99948.22;;;19.56;36.54
62976;BME280;49071;0.000;0.000;2022-12-08T18:44:24;99950.19;;;19.52;36.80
62976;BME280;49071;0.000;0.000;2022-12-08T18:47:24;99953.22;;;19.46;36.74
62976;BME280;49071;0.000;0.000;2022-12-08T18:50:25;99954.47;;;19.41;36.81
62976;BME280;49071;0.000;0.000;2022-12-08T18:53:25;99954.88;;;19.34;36.91
62976;BME280;49071;0.000;0.000;2022-12-08T18:56:26;99958.91;;;19.26;37.22
62976;BME280;49071;0.000;0.000;2022-12-08T18:59:27;99962.03;;;19.18;37.08
62976;BME280;49071;0.000;0.000;2022-12-08T19:02:27;99968.03;;;19.06;37.24
62976;BME280;49071;0.000;0.000;2022-12-08T19:05:27;99962.69;;;18.93;37.40
62976;BME280;49071;0.000;0.000;2022-12-08T19:08:27;99960.47;;;18.87;37.34
62976;BME280;49071;0.000;0.000;2022-12-08T19:11:27;99964.22;;;18.83;37.54
62976;BME280;49071;0.000;0.000;2022-12-08T19:14:28;99966.28;;;18.78;37.55
62976;BME280;49071;0.000;0.000;2022-12-08T19:17:29;99966.66;;;18.72;38.02
62976;BME280;49071;0.000;0.000;2022-12-08T19:20:29;99968.88;;;18.63;37.74
62976;BME280;49071;0.000;0.000;2022-12-08T19:23:29;99971.97;;;18.56;38.16
62976;BME280;49071;0.000;0.000;2022-12-08T19:26:30;99977.59;;;18.50;38.25
62976;BME280;49071;0.000;0.000;2022-12-08T19:29:30;99970.75;;;18.47;38.21
62976;BME280;49071;0.000;0.000;2022-12-08T19:32:30;99974.56;;;18.41;38.39
62976;BME280;49071;0.000;0.000;2022-12-08T19:35:30;99973.91;;;18.38;38.36
62976;BME280;49071;0.000;0.000;2022-12-08T19:38:30;99981.22;;;18.33;38.37
62976;BME280;49071;0.000;0.000;2022-12-08T19:41:51;99979.44;;;18.33;38.54
62976;BME280;49071;0.000;0.000;2022-12-08T19:45:14;99984.59;;;18.35;38.42
62976;BME280;49071;0.000;0.000;2022-12-08T19:48:15;99979.09;;;18.39;38.47
62976;BME280;49071;0.000;0.000;2022-12-08T19:51:15;99980.47;;;18.45;38.38
62976;BME280;49071;0.000;0.000;2022-12-08T19:54:15;99981.63;;;18.55;38.12
62976;BME280;49071;0.000;0.000;2022-12-08T19:57:15;99982.94;;;18.62;38.29
62976;BME280;49071;0.000;0.000;2022-12-08T20:00:16;99985.03;;;18.72;38.15
62976;BME280;49071;0.000;0.000;2022-12-08T20:03:18;99993.41;;;18.78;37.99
62976;BME280;49071;0.000;0.000;2022-12-08T20:06:18;99992.94;;;18.86;37.93
62976;BME280;49071;0.000;0.000;2022-12-08T20:09:19;100004.28;;;19.01;37.74
62976;BME280;49071;0.000;0.000;2022-12-08T20:12:19;100000.81;;;19.15;37.60
62976;BME280;49071;0.000;0.000;2022-12-08T20:15:19;99997.13;;;19.31;37.15
62976;BME280;49071;0.000;0.000;2022-12-08T20:18:20;100003.19;;;19.46;36.90
62976;BME280;49071;0.000;0.000;2022-12-08T20:21:20;100006.66;;;19.61;36.76
62976;BME280;49071;0.000;0.000;2022-12-08T20:24:20;100002.59;;;19.70;36.94
62976;BME280;49071;0.000;0.000;2022-12-08T20:27:21;100006.69;;;19.74;36.88
62976;BME280;49071;0.000;0.000;2022-12-08T20:30:22;100005.88;;;19.73;36.59
62976;BME280;49071;0.000;0.000;2022-12-08T20:33:22;100005.97;;;19.72;36.50
62976;BME280;49071;0.000;0.000;2022-12-08T20:36:22;100011.53;;;19.67;36.80
62976;BME280;49071;0.000;0.000;2022-12-08T20:39:23;100010.13;;;19.62;36.96
62976;BME280;49071;0.000;0.000;2022-12-08T20:42:23;100014.72;;;19.58;36.89
62976;BME280;49071;0.000;0.000;2022-12-08T20:45:23;100014.16;;;19.53;36.85
62976;BME280;49071;0.000;0.000;2022-12-08T20:48:23;100006.00;;;19.43;37.23
62976;BME280;49071;0.000;0.000;2022-12-08T20:51:23;100006.69;;;19.32;37.48
